createdAt,value
2016-10-13T00:01:05.497Z,93
2016-10-13T00:01:26.909Z,92.8
2016-10-13T00:01:47.523Z,92.9
2016-10-13T00:02:08.122Z,92.9
2016-10-13T00:02:28.693Z,93
2016-10-13T00:02:49.267Z,92.7
2016-10-13T00:03:10.964Z,92.9
2016-10-13T00:03:32.411Z,92.7
2016-10-13T00:03:52.984Z,92.7
2016-10-13T00:04:13.574Z,93.2
2016-10-13T00:04:34.956Z,92.7
2016-10-13T00:04:57.032Z,93.4
2016-10-13T00:05:17.621Z,92.7
2016-10-13T00:05:38.981Z,92.7
2016-10-13T00:06:00.083Z,93.4
2016-10-13T00:06:21.910Z,93.3
2016-10-13T00:06:43.015Z,93.3
2016-10-13T00:07:03.626Z,93.2
2016-10-13T00:07:24.983Z,93.2
2016-10-13T00:07:45.575Z,92.7
2016-10-13T00:08:06.141Z,93.2
2016-10-13T00:08:26.735Z,93.5
2016-10-13T00:08:47.296Z,93
2016-10-13T00:09:07.848Z,93.5
2016-10-13T00:09:28.423Z,93.2
2016-10-13T00:09:49.913Z,92.8
2016-10-13T00:10:10.498Z,92.9
2016-10-13T00:11:29.782Z,93.4
2016-10-13T00:11:50.383Z,93.4
2016-10-13T00:12:11.555Z,93.3
2016-10-13T00:12:35.033Z,93.3
2016-10-13T00:12:56.485Z,93.4
2016-10-13T00:13:17.063Z,93.2
2016-10-13T00:13:38.988Z,92.8
2016-10-13T00:13:59.588Z,93.3
2016-10-13T00:14:20.968Z,93
2016-10-13T00:14:41.539Z,93.5
2016-10-13T00:15:02.130Z,93.3
2016-10-13T00:15:23.488Z,93.3
2016-10-13T00:15:44.098Z,93.4
2016-10-13T00:16:04.658Z,93.3
2016-10-13T00:16:25.230Z,93.5
2016-10-13T00:16:46.539Z,93.3
2016-10-13T00:17:07.917Z,93.4
2016-10-13T00:17:28.499Z,93.6
2016-10-13T00:17:49.067Z,93.5
2016-10-13T00:18:09.662Z,93.1
2016-10-13T00:18:30.256Z,93.3
2016-10-13T00:18:50.844Z,93.3
2016-10-13T00:19:11.432Z,93.3
2016-10-13T00:19:32.978Z,93
2016-10-13T00:19:53.552Z,93
2016-10-13T00:20:14.119Z,93.3
2016-10-13T00:20:34.709Z,93.2
2016-10-13T00:20:55.984Z,93.4
2016-10-13T00:21:16.559Z,93.2
2016-10-13T00:21:38.032Z,93
2016-10-13T00:21:59.464Z,93.3
2016-10-13T00:22:20.085Z,93.4
2016-10-13T00:22:41.417Z,93.2
2016-10-13T00:23:02.004Z,93.4
2016-10-13T00:23:22.594Z,93.2
2016-10-13T00:23:43.178Z,93.5
2016-10-13T00:24:04.458Z,93.2
2016-10-13T00:24:25.049Z,93.4
2016-10-13T00:24:46.471Z,93.3
2016-10-13T00:25:07.070Z,93.5
2016-10-13T00:25:27.666Z,93.1
2016-10-13T00:25:49.010Z,93.3
2016-10-13T00:26:09.588Z,93.5
2016-10-13T00:26:30.151Z,93.2
2016-10-13T00:26:51.478Z,93.2
2016-10-13T00:27:12.988Z,93.2
2016-10-13T00:27:34.479Z,93.4
2016-10-13T00:27:55.042Z,93.3
2016-10-13T00:28:16.479Z,93.1
2016-10-13T00:28:38.007Z,93.3
2016-10-13T00:28:58.597Z,93.3
2016-10-13T00:29:20.923Z,93.1
2016-10-13T00:29:41.515Z,93.2
2016-10-13T00:30:02.078Z,93
2016-10-13T00:30:22.664Z,93.3
2016-10-13T00:30:43.243Z,93.3
2016-10-13T00:31:03.826Z,93.2
2016-10-13T00:31:35.634Z,92.9
2016-10-13T00:31:56.922Z,93
2016-10-13T00:32:18.475Z,93
2016-10-13T00:32:39.050Z,92.9
2016-10-13T00:32:59.639Z,93
2016-10-13T00:33:20.212Z,93.2
2016-10-13T00:33:42.451Z,93.2
2016-10-13T00:34:03.024Z,93
2016-10-13T00:34:24.502Z,93
2016-10-13T00:34:45.098Z,93.3
2016-10-13T00:35:05.677Z,93.1
2016-10-13T00:35:26.244Z,93.4
2016-10-13T00:35:47.499Z,93.3
2016-10-13T00:36:08.080Z,93.4
2016-10-13T00:36:29.498Z,93.1
2016-10-13T00:36:50.057Z,93.2
2016-10-13T00:37:10.637Z,93.3
2016-10-13T00:37:31.986Z,93.6
2016-10-13T00:37:52.590Z,93.3
2016-10-13T00:38:13.994Z,93.3
2016-10-13T00:38:34.571Z,93.2
2016-10-13T00:38:55.138Z,93.2
2016-10-13T00:39:16.547Z,93.3
2016-10-13T00:39:37.138Z,93.4
2016-10-13T00:39:58.470Z,93.2
2016-10-13T00:40:19.975Z,93.4
2016-10-13T00:40:40.559Z,93
2016-10-13T00:41:01.978Z,93
2016-10-13T00:41:22.561Z,93.2
2016-10-13T00:41:43.139Z,93.2
2016-10-13T00:42:03.752Z,93.2
2016-10-13T00:42:24.321Z,93.3
2016-10-13T00:42:44.900Z,93.2
2016-10-13T00:43:05.466Z,93
2016-10-13T00:43:26.038Z,93.2
2016-10-13T00:43:46.607Z,93.5
2016-10-13T00:44:08.928Z,93.4
2016-10-13T00:44:29.509Z,93
2016-10-13T00:44:50.994Z,93.5
2016-10-13T00:45:12.477Z,93.4
2016-10-13T00:45:33.979Z,93.2
2016-10-13T00:45:54.557Z,93.4
2016-10-13T00:46:15.140Z,93.4
2016-10-13T00:46:36.427Z,93.3
2016-10-13T00:46:57.927Z,93.2
2016-10-13T00:47:19.025Z,93
2016-10-13T00:47:40.484Z,93.2
2016-10-13T00:48:01.074Z,93.3
2016-10-13T00:48:21.666Z,93.1
2016-10-13T00:48:42.229Z,93.4
2016-10-13T00:49:02.815Z,93.2
2016-10-13T00:49:23.401Z,93.4
2016-10-13T00:49:43.980Z,93.5
2016-10-13T00:50:05.492Z,93.3
2016-10-13T00:50:26.056Z,93.2
2016-10-13T00:50:46.648Z,93.4
2016-10-13T00:51:07.972Z,93.3
2016-10-13T00:51:29.990Z,93.5
2016-10-13T00:51:50.568Z,93.1
2016-10-13T00:52:12.013Z,93.1
2016-10-13T00:52:32.575Z,93.3
2016-10-13T00:52:53.157Z,93.5
2016-10-13T00:53:13.761Z,93.2
2016-10-13T00:53:34.326Z,93.3
2016-10-13T00:53:55.507Z,93.2
2016-10-13T00:54:16.995Z,93.4
2016-10-13T00:54:37.561Z,93.8
2016-10-13T00:54:58.143Z,93.6
2016-10-13T00:55:19.482Z,93.6
2016-10-13T00:55:41.020Z,93.2
2016-10-13T00:56:02.495Z,94
2016-10-13T00:56:23.084Z,93.9
2016-10-13T00:56:43.645Z,94
2016-10-13T00:57:05.019Z,93.9
2016-10-13T00:57:26.432Z,93.7
2016-10-13T00:57:47.506Z,94
2016-10-13T00:58:08.968Z,94.1
2016-10-13T00:58:30.498Z,94.1
2016-10-13T00:58:51.099Z,94
2016-10-13T00:59:11.662Z,93.7
2016-10-13T00:59:33.495Z,93.7
2016-10-13T00:59:54.077Z,93.6
2016-10-13T01:00:14.677Z,93.7
2016-10-13T01:00:35.964Z,94
2016-10-13T01:00:56.545Z,93.8
2016-10-13T01:01:18.050Z,94
2016-10-13T01:01:38.639Z,93.8
2016-10-13T01:02:00.488Z,93.7
2016-10-13T01:02:22.010Z,94
2016-10-13T01:02:43.522Z,93.7
2016-10-13T01:03:04.099Z,93.8
2016-10-13T01:03:24.689Z,93.8
2016-10-13T01:03:45.257Z,93.9
2016-10-13T01:04:05.823Z,94
2016-10-13T01:04:26.411Z,94
2016-10-13T01:04:47.010Z,94.1
2016-10-13T01:05:07.584Z,93.8
2016-10-13T01:05:28.148Z,94
2016-10-13T01:05:50.076Z,93.2
2016-10-13T01:06:10.655Z,94
2016-10-13T01:06:32.000Z,94.1
2016-10-13T01:06:52.576Z,94
2016-10-13T01:07:13.141Z,94.1
2016-10-13T01:07:33.720Z,94.1
2016-10-13T01:07:54.305Z,94.2
2016-10-13T01:08:14.897Z,94
2016-10-13T01:08:35.977Z,93.9
2016-10-13T01:08:57.513Z,94
2016-10-13T01:09:18.089Z,94.1
2016-10-13T01:09:38.668Z,93.7
2016-10-13T01:10:00.016Z,93.2
2016-10-13T01:10:20.606Z,93.6
2016-10-13T01:10:41.183Z,93.5
2016-10-13T01:11:01.756Z,93.5
2016-10-13T01:11:22.937Z,93.5
2016-10-13T01:11:43.515Z,93.2
2016-10-13T01:12:04.082Z,93.3
2016-10-13T01:12:39.519Z,93.5
2016-10-13T01:13:00.093Z,93.3
2016-10-13T01:13:22.022Z,93
2016-10-13T01:13:42.621Z,93.3
2016-10-13T01:14:03.186Z,93
2016-10-13T01:14:23.752Z,93.5
2016-10-13T01:14:44.322Z,93.3
2016-10-13T01:15:04.915Z,93.5
2016-10-13T01:15:25.503Z,93.3
2016-10-13T01:15:46.063Z,93.3
2016-10-13T01:16:06.650Z,93.4
2016-10-13T01:16:27.225Z,93.4
2016-10-13T01:16:48.501Z,93.3
2016-10-13T01:17:09.072Z,93.4
2016-10-13T01:17:29.641Z,93.4
2016-10-13T01:17:50.245Z,93.5
2016-10-13T01:18:10.814Z,93.2
2016-10-13T01:18:31.376Z,93.1
2016-10-13T01:18:51.972Z,93.4
2016-10-13T01:19:12.536Z,93.7
2016-10-13T01:19:33.112Z,93.4
2016-10-13T01:19:53.675Z,93.5
2016-10-13T01:20:14.260Z,93.5
2016-10-13T01:20:34.844Z,93.6
2016-10-13T01:20:55.403Z,93.5
2016-10-13T01:21:15.972Z,93
2016-10-13T01:21:36.221Z,93.4
2016-10-13T01:21:56.791Z,93.5
2016-10-13T01:22:18.942Z,93.3
2016-10-13T01:22:39.507Z,93.4
2016-10-13T01:23:00.076Z,93.4
2016-10-13T01:23:20.649Z,93.5
2016-10-13T01:23:41.234Z,93.1
2016-10-13T01:24:02.993Z,93.1
2016-10-13T01:24:23.577Z,93.1
2016-10-13T01:24:44.997Z,93.4
2016-10-13T01:25:05.579Z,93.4
2016-10-13T01:25:27.025Z,93.3
2016-10-13T01:25:47.621Z,93.2
2016-10-13T01:26:09.024Z,93.3
2016-10-13T01:26:29.600Z,93.2
2016-10-13T01:26:50.185Z,93.2
2016-10-13T01:27:11.503Z,93.2
2016-10-13T01:27:33.005Z,93.4
2016-10-13T01:27:53.581Z,93.4
2016-10-13T01:28:14.160Z,93.5
2016-10-13T01:28:34.734Z,93.4
2016-10-13T01:28:55.295Z,93.3
2016-10-13T01:29:15.884Z,93.3
2016-10-13T01:29:36.989Z,93.3
2016-10-13T01:29:59.449Z,93.2
2016-10-13T01:30:20.039Z,93.2
2016-10-13T01:30:40.623Z,93.4
2016-10-13T01:31:01.224Z,93.3
2016-10-13T01:31:22.512Z,93.4
2016-10-13T01:31:43.080Z,93
2016-10-13T01:32:03.670Z,93.3
2016-10-13T01:32:24.249Z,93.3
2016-10-13T01:32:44.845Z,93.4
2016-10-13T01:33:06.019Z,93.3
2016-10-13T01:33:26.613Z,93.5
2016-10-13T01:33:47.205Z,93.5
2016-10-13T01:34:09.491Z,93.7
2016-10-13T01:34:30.063Z,93.2
2016-10-13T01:34:50.649Z,93.2
2016-10-13T01:35:11.236Z,93.8
2016-10-13T01:35:31.837Z,93.7
2016-10-13T01:35:52.410Z,93.2
2016-10-13T01:36:12.992Z,93.3
2016-10-13T01:36:34.483Z,93.3
2016-10-13T01:36:55.065Z,93.4
2016-10-13T01:37:16.642Z,93.5
2016-10-13T01:37:37.241Z,93.5
2016-10-13T01:37:57.804Z,93.3
2016-10-13T01:38:19.010Z,93.3
2016-10-13T01:38:39.593Z,93.5
2016-10-13T01:39:01.041Z,93.3
2016-10-13T01:39:21.620Z,93.2
2016-10-13T01:39:43.041Z,93.4
2016-10-13T01:40:04.522Z,93.2
2016-10-13T01:40:26.033Z,93.2
2016-10-13T01:40:46.637Z,93.2
2016-10-13T01:41:08.064Z,93.3
2016-10-13T01:41:28.647Z,93.4
2016-10-13T01:41:49.232Z,93.5
2016-10-13T01:42:11.025Z,93.1
2016-10-13T01:42:32.521Z,93.2
2016-10-13T01:42:53.102Z,93.2
2016-10-13T01:43:13.665Z,93.2
2016-10-13T01:43:34.281Z,93.3
2016-10-13T01:43:55.498Z,93.4
2016-10-13T01:44:16.091Z,93.3
2016-10-13T01:44:36.667Z,93.2
2016-10-13T01:44:57.231Z,93.4
2016-10-13T01:45:17.824Z,93.4
2016-10-13T01:45:38.402Z,93.2
2016-10-13T01:46:00.091Z,93.1
2016-10-13T01:46:21.996Z,93.2
2016-10-13T01:46:42.586Z,93.4
2016-10-13T01:47:03.151Z,93.3
2016-10-13T01:47:23.768Z,93.4
2016-10-13T01:47:44.345Z,93.1
2016-10-13T01:48:05.505Z,93
2016-10-13T01:48:26.089Z,93.4
2016-10-13T01:48:47.544Z,93.3
2016-10-13T01:49:08.989Z,93.2
2016-10-13T01:49:29.579Z,93.4
2016-10-13T01:49:50.159Z,93.2
2016-10-13T01:50:10.727Z,93.1
2016-10-13T01:50:32.039Z,93.5
2016-10-13T01:50:52.608Z,93.2
2016-10-13T01:51:13.172Z,93
2016-10-13T01:51:33.746Z,93.1
2016-10-13T01:51:54.310Z,93.3
2016-10-13T01:52:14.902Z,93.3
2016-10-13T01:52:35.466Z,93.3
2016-10-13T01:52:56.046Z,93
2016-10-13T01:53:16.629Z,93.2
2016-10-13T01:53:37.204Z,93.1
2016-10-13T01:53:58.495Z,92.9
2016-10-13T01:54:19.059Z,93
2016-10-13T01:54:40.454Z,93.3
2016-10-13T01:55:01.036Z,93.5
2016-10-13T01:55:21.632Z,93.3
2016-10-13T01:55:42.203Z,93.4
2016-10-13T01:56:02.769Z,93.4
2016-10-13T01:56:23.338Z,93.4
2016-10-13T01:56:43.914Z,93.3
2016-10-13T01:57:04.478Z,93.3
2016-10-13T01:57:25.043Z,93.2
2016-10-13T01:57:45.625Z,93.2
2016-10-13T01:58:06.958Z,93.1
2016-10-13T01:58:27.546Z,93.1
2016-10-13T01:58:48.117Z,93.3
2016-10-13T01:59:08.687Z,93.3
2016-10-13T01:59:29.249Z,93.2
2016-10-13T01:59:49.823Z,93.2
2016-10-13T02:00:10.399Z,93.2
2016-10-13T02:00:30.966Z,93.1
2016-10-13T02:00:51.549Z,93
2016-10-13T02:01:13.018Z,93.4
2016-10-13T02:01:34.551Z,93.2
2016-10-13T02:01:55.142Z,93.2
2016-10-13T02:02:15.711Z,93.3
2016-10-13T02:02:36.267Z,93.3
2016-10-13T02:02:56.834Z,93.1
2016-10-13T02:03:17.403Z,93.3
2016-10-13T02:03:38.513Z,93.5
2016-10-13T02:03:59.113Z,93.1
2016-10-13T02:04:19.681Z,93.2
2016-10-13T02:04:40.252Z,93.3
2016-10-13T02:05:00.810Z,93.5
2016-10-13T02:05:21.387Z,93.3
2016-10-13T02:05:42.505Z,93.4
2016-10-13T02:06:03.089Z,93.3
2016-10-13T02:06:25.011Z,93.4
2016-10-13T02:06:45.597Z,93.5
2016-10-13T02:07:06.186Z,93.6
2016-10-13T02:07:28.028Z,94
2016-10-13T02:07:48.601Z,94.1
2016-10-13T02:08:10.012Z,94
2016-10-13T02:08:30.575Z,93.9
2016-10-13T02:08:51.157Z,94
2016-10-13T02:09:11.728Z,93.8
2016-10-13T02:09:32.305Z,94.1
2016-10-13T02:09:52.875Z,93.8
2016-10-13T02:10:14.030Z,94.1
2016-10-13T02:10:35.580Z,93.7
2016-10-13T02:10:56.165Z,93.3
2016-10-13T02:11:16.739Z,93.1
2016-10-13T02:11:38.093Z,93.2
2016-10-13T02:11:58.671Z,93.4
2016-10-13T02:12:19.250Z,93.3
2016-10-13T02:12:55.522Z,93.8
2016-10-13T02:13:16.083Z,94
2016-10-13T02:13:36.669Z,93.2
2016-10-13T02:13:57.245Z,94
2016-10-13T02:14:18.520Z,94
2016-10-13T02:14:39.103Z,94
2016-10-13T02:14:59.661Z,94
2016-10-13T02:15:20.229Z,93.2
2016-10-13T02:15:41.527Z,94
2016-10-13T02:16:02.606Z,94
2016-10-13T02:16:24.966Z,93.7
2016-10-13T02:16:45.536Z,93.4
2016-10-13T02:17:07.035Z,93.5
2016-10-13T02:17:28.510Z,93.4
2016-10-13T02:17:49.093Z,93.5
2016-10-13T02:18:10.541Z,93.5
2016-10-13T02:18:31.102Z,93.7
2016-10-13T02:18:53.465Z,94.1
2016-10-13T02:19:14.043Z,93.6
2016-10-13T02:19:35.518Z,93.5
2016-10-13T02:19:56.624Z,93.3
2016-10-13T02:20:19.022Z,93.2
2016-10-13T02:20:39.583Z,93.3
2016-10-13T02:21:00.152Z,93.8
2016-10-13T02:21:20.729Z,93.6
2016-10-13T02:21:41.302Z,93.5
2016-10-13T02:22:01.873Z,93.5
2016-10-13T02:22:22.448Z,94.1
2016-10-13T02:22:43.541Z,93.8
2016-10-13T02:23:04.113Z,94
2016-10-13T02:23:26.470Z,93.7
2016-10-13T02:23:47.046Z,94
2016-10-13T02:24:10.471Z,94
2016-10-13T02:24:50.606Z,93.9
2016-10-13T02:25:11.186Z,93.7
2016-10-13T02:25:31.745Z,94
2016-10-13T02:25:53.518Z,93.7
2016-10-13T02:26:14.970Z,93.9
2016-10-13T02:26:36.036Z,93.8
2016-10-13T02:26:56.611Z,94
2016-10-13T02:27:18.007Z,93.9
2016-10-13T02:27:38.579Z,93.9
2016-10-13T02:28:00.055Z,93.7
2016-10-13T02:28:21.600Z,93.7
2016-10-13T02:28:42.177Z,93.9
2016-10-13T02:29:03.541Z,93.8
2016-10-13T02:29:26.023Z,93.7
2016-10-13T02:29:47.569Z,93.9
2016-10-13T02:30:08.256Z,93.6
2016-10-13T02:30:28.835Z,93.6
2016-10-13T02:30:50.031Z,93.6
2016-10-13T02:31:10.615Z,93.7
2016-10-13T02:31:31.179Z,93.9
2016-10-13T02:31:51.740Z,93.8
2016-10-13T02:32:14.024Z,93.7
2016-10-13T02:32:35.067Z,93.8
2016-10-13T02:32:56.569Z,93.7
2016-10-13T02:33:18.057Z,93.8
2016-10-13T02:33:38.636Z,93.7
2016-10-13T02:33:59.213Z,93.8
2016-10-13T02:34:19.798Z,93.7
2016-10-13T02:34:41.042Z,93.9
2016-10-13T02:35:01.606Z,93.7
2016-10-13T02:35:22.177Z,93.8
2016-10-13T02:35:42.740Z,93.5
2016-10-13T02:36:03.974Z,93.8
2016-10-13T02:36:25.475Z,93.5
2016-10-13T02:36:46.539Z,93.9
2016-10-13T02:37:08.060Z,93.7
2016-10-13T02:37:28.635Z,93.6
2016-10-13T02:37:49.200Z,93.6
2016-10-13T02:38:09.775Z,93.7
2016-10-13T02:38:31.043Z,93.9
2016-10-13T02:38:51.639Z,93.6
2016-10-13T02:39:12.210Z,93.7
2016-10-13T02:39:34.529Z,93.8
2016-10-13T02:39:56.035Z,93.5
2016-10-13T02:40:16.617Z,93.7
2016-10-13T02:40:37.194Z,93.8
2016-10-13T02:40:59.496Z,93.9
2016-10-13T02:41:20.066Z,93.6
2016-10-13T02:41:41.541Z,93.6
2016-10-13T02:42:03.015Z,93.6
2016-10-13T02:42:23.612Z,93.7
2016-10-13T02:42:45.526Z,94
2016-10-13T02:43:06.120Z,93.9
2016-10-13T02:43:27.538Z,93.9
2016-10-13T02:43:48.118Z,93.7
2016-10-13T02:44:08.713Z,93.7
2016-10-13T02:44:31.531Z,93.9
2016-10-13T02:44:52.112Z,93.8
2016-10-13T02:45:12.681Z,93.7
2016-10-13T02:45:34.014Z,93.7
2016-10-13T02:45:55.076Z,93.7
2016-10-13T02:46:15.646Z,93.7
2016-10-13T02:46:37.015Z,93.7
2016-10-13T02:46:58.533Z,93.7
2016-10-13T02:47:19.103Z,94
2016-10-13T02:47:40.563Z,93.7
2016-10-13T02:48:01.124Z,94
2016-10-13T02:48:22.596Z,94.2
2016-10-13T02:48:43.192Z,94
2016-10-13T02:49:03.753Z,94
2016-10-13T02:49:24.319Z,93.8
2016-10-13T02:49:44.908Z,93.9
2016-10-13T02:50:05.479Z,93.6
2016-10-13T02:50:26.054Z,93.7
2016-10-13T02:50:46.649Z,93.9
2016-10-13T02:51:08.526Z,93.7
2016-10-13T02:51:29.093Z,93.7
2016-10-13T02:51:50.543Z,93.7
2016-10-13T02:52:12.028Z,93.8
2016-10-13T02:52:32.594Z,93.7
2016-10-13T02:52:54.014Z,94
2016-10-13T02:53:14.583Z,93.9
2016-10-13T02:53:35.166Z,94
2016-10-13T02:53:56.543Z,94
2016-10-13T02:54:17.983Z,94.1
2016-10-13T02:54:39.052Z,94.1
2016-10-13T02:55:00.529Z,93.7
2016-10-13T02:55:21.122Z,93.8
2016-10-13T02:55:42.552Z,93.8
2016-10-13T02:56:04.021Z,94
2016-10-13T02:56:24.612Z,93.8
2016-10-13T02:56:45.185Z,93.7
2016-10-13T02:57:05.756Z,94.1
2016-10-13T02:57:26.344Z,93.3
2016-10-13T02:57:46.927Z,93.6
2016-10-13T02:58:07.515Z,93.8
2016-10-13T02:58:29.048Z,94
2016-10-13T02:58:49.633Z,93.3
2016-10-13T02:59:11.058Z,93.7
2016-10-13T02:59:32.545Z,93.3
2016-10-13T02:59:53.110Z,93.4
2016-10-13T03:00:13.682Z,93.3
2016-10-13T03:00:35.103Z,93.4
2016-10-13T03:00:55.681Z,93.3
2016-10-13T03:01:16.256Z,93.4
2016-10-13T03:01:36.814Z,93.2
2016-10-13T03:01:58.048Z,93.2
2016-10-13T03:02:18.634Z,93.5
2016-10-13T03:02:39.203Z,93.4
2016-10-13T03:02:59.781Z,93.2
2016-10-13T03:03:20.342Z,93.4
2016-10-13T03:03:40.914Z,93.4
2016-10-13T03:04:01.483Z,93.4
2016-10-13T03:04:22.069Z,93.6
2016-10-13T03:04:42.655Z,93.4
2016-10-13T03:05:04.075Z,93.2
2016-10-13T03:05:25.485Z,93.3
2016-10-13T03:06:44.768Z,93.4
2016-10-13T03:07:06.047Z,93.1
2016-10-13T03:07:26.628Z,93.5
2016-10-13T03:07:47.216Z,93.4
2016-10-13T03:08:07.791Z,93.3
2016-10-13T03:08:28.989Z,93.3
2016-10-13T03:08:49.564Z,93.2
2016-10-13T03:09:10.139Z,93.2
2016-10-13T03:09:30.717Z,93.4
2016-10-13T03:09:51.286Z,93.2
2016-10-13T03:10:11.858Z,93.2
2016-10-13T03:10:33.023Z,93.5
2016-10-13T03:10:53.599Z,93.4
2016-10-13T03:11:14.175Z,93.2
2016-10-13T03:11:34.747Z,93.1
2016-10-13T03:11:55.335Z,93.2
2016-10-13T03:12:15.903Z,93.4
2016-10-13T03:12:36.488Z,93.3
2016-10-13T03:12:59.329Z,93.3
2016-10-13T03:13:20.537Z,93.6
2016-10-13T03:13:41.104Z,93.2
2016-10-13T03:14:02.541Z,93.4
2016-10-13T03:14:23.117Z,93.4
2016-10-13T03:14:43.818Z,93.4
2016-10-13T03:15:04.413Z,93.5
2016-10-13T03:15:24.665Z,93.5
2016-10-13T03:15:46.081Z,93.1
2016-10-13T03:16:08.491Z,93.5
2016-10-13T03:16:29.090Z,93.1
2016-10-13T03:16:49.668Z,93.2
2016-10-13T03:17:11.105Z,93.4
2016-10-13T03:17:32.539Z,93.5
2016-10-13T03:17:53.131Z,93.3
2016-10-13T03:18:13.701Z,93.4
2016-10-13T03:18:34.281Z,93.3
2016-10-13T03:18:54.867Z,93.3
2016-10-13T03:19:15.435Z,93.5
2016-10-13T03:19:36.021Z,93.2
2016-10-13T03:19:56.593Z,93.5
2016-10-13T03:20:17.217Z,93.5
2016-10-13T03:20:37.789Z,93.1
2016-10-13T03:20:58.371Z,93.4
2016-10-13T03:21:18.940Z,93.4
2016-10-13T03:21:39.523Z,93.5
2016-10-13T03:22:00.101Z,93.4
2016-10-13T03:22:20.680Z,93.3
2016-10-13T03:22:42.047Z,93.3
2016-10-13T03:23:03.493Z,93.1
2016-10-13T03:23:24.064Z,93.3
2016-10-13T03:23:44.654Z,93.3
2016-10-13T03:24:06.033Z,93.4
2016-10-13T03:24:27.525Z,93.4
2016-10-13T03:24:48.095Z,93.4
2016-10-13T03:25:08.659Z,93.6
2016-10-13T03:25:29.234Z,93.5
2016-10-13T03:25:50.497Z,93.4
2016-10-13T03:26:11.055Z,93.4
2016-10-13T03:26:31.618Z,93.4
2016-10-13T03:26:52.289Z,93.3
2016-10-13T03:27:13.594Z,93.1
2016-10-13T03:27:34.162Z,93.4
2016-10-13T03:27:54.721Z,93.3
2016-10-13T03:28:15.295Z,93.3
2016-10-13T03:28:35.879Z,93.2
2016-10-13T03:28:56.445Z,93.3
2016-10-13T03:29:17.027Z,93.3
2016-10-13T03:29:39.511Z,93.1
2016-10-13T03:30:00.083Z,93.3
2016-10-13T03:30:20.343Z,93.3
2016-10-13T03:30:40.913Z,93.4
2016-10-13T03:31:02.104Z,93.4
2016-10-13T03:31:24.611Z,93.6
2016-10-13T03:31:46.061Z,93.3
2016-10-13T03:32:08.538Z,93.6
2016-10-13T03:32:29.120Z,93.4
2016-10-13T03:32:50.556Z,93.5
2016-10-13T03:33:12.633Z,93.2
2016-10-13T03:33:33.206Z,93.4
2016-10-13T03:33:55.537Z,93.5
2016-10-13T03:34:16.120Z,93.4
2016-10-13T03:34:37.555Z,93.3
2016-10-13T03:34:58.130Z,93.3
2016-10-13T03:35:19.499Z,93.4
2016-10-13T03:35:41.529Z,93.4
2016-10-13T03:36:02.108Z,93.4
2016-10-13T03:36:23.551Z,93.5
2016-10-13T03:36:44.620Z,93.6
2016-10-13T03:37:05.192Z,93.5
2016-10-13T03:37:27.557Z,93.2
2016-10-13T03:37:48.131Z,93.5
2016-10-13T03:38:08.714Z,93.5
2016-10-13T03:38:29.296Z,93.4
2016-10-13T03:38:49.888Z,92.7
2016-10-13T03:39:11.058Z,93
2016-10-13T03:39:31.638Z,92.9
2016-10-13T03:39:52.223Z,92.9
2016-10-13T03:40:14.543Z,92.9
2016-10-13T03:40:36.004Z,92.9
2016-10-13T03:40:56.628Z,93.3
2016-10-13T03:41:17.230Z,93.2
2016-10-13T03:41:37.802Z,93.1
2016-10-13T03:42:00.066Z,93
2016-10-13T03:42:20.653Z,93.2
2016-10-13T03:42:41.215Z,93.2
2016-10-13T03:43:01.793Z,93
2016-10-13T03:43:22.373Z,93
2016-10-13T03:43:43.555Z,93.2
2016-10-13T03:44:04.129Z,92.9
2016-10-13T03:44:25.595Z,93
2016-10-13T03:44:48.056Z,92.7
2016-10-13T03:45:08.630Z,93
2016-10-13T03:45:30.582Z,93.1
2016-10-13T03:45:52.085Z,92.9
2016-10-13T03:46:13.570Z,93.2
2016-10-13T03:46:37.004Z,93.2
2016-10-13T03:47:00.053Z,93.1
2016-10-13T03:47:21.123Z,93.1
2016-10-13T03:47:42.616Z,93.2
2016-10-13T03:48:03.186Z,93.2
2016-10-13T03:48:23.751Z,93.2
2016-10-13T03:48:44.312Z,92.9
2016-10-13T03:49:06.070Z,93.2
2016-10-13T03:49:27.549Z,93.2
2016-10-13T03:49:48.139Z,93
2016-10-13T03:50:08.715Z,93
2016-10-13T03:50:29.293Z,93.1
2016-10-13T03:50:49.861Z,93
2016-10-13T03:51:10.444Z,93.3
2016-10-13T03:51:31.019Z,93.3
2016-10-13T03:51:51.601Z,93.3
2016-10-13T03:52:12.176Z,93.4
2016-10-13T03:52:33.558Z,93.3
2016-10-13T03:52:54.140Z,93.2
2016-10-13T03:53:14.706Z,93.3
2016-10-13T03:53:35.294Z,92.9
2016-10-13T03:53:56.509Z,93.4
2016-10-13T03:54:17.125Z,93.3
2016-10-13T03:54:38.560Z,92.8
2016-10-13T03:54:59.156Z,93
2016-10-13T03:55:19.727Z,92.7
2016-10-13T03:55:40.310Z,92.9
2016-10-13T03:56:00.901Z,92.9
2016-10-13T03:56:21.485Z,93
2016-10-13T03:56:42.557Z,93.2
2016-10-13T03:57:03.602Z,93.4
2016-10-13T03:57:25.085Z,93.2
2016-10-13T03:57:46.550Z,93.2
2016-10-13T03:58:07.105Z,93.1
2016-10-13T03:58:27.687Z,93.1
2016-10-13T03:58:48.284Z,93.2
2016-10-13T03:59:08.878Z,93.1
2016-10-13T03:59:30.091Z,93.3
2016-10-13T03:59:51.576Z,93
2016-10-13T04:00:12.150Z,93.2
2016-10-13T04:00:32.735Z,93.1
2016-10-13T04:00:53.313Z,92.9
2016-10-13T04:01:13.903Z,92.8
2016-10-13T04:01:35.073Z,93
2016-10-13T04:01:55.655Z,93
2016-10-13T04:02:16.238Z,93
2016-10-13T04:02:37.585Z,92.7
2016-10-13T04:02:58.189Z,92.8
2016-10-13T04:03:18.787Z,92.9
2016-10-13T04:03:39.362Z,93
2016-10-13T04:04:00.540Z,93.1
2016-10-13T04:04:22.571Z,93.2
2016-10-13T04:04:43.175Z,93.3
2016-10-13T04:05:03.747Z,93.2
2016-10-13T04:05:27.058Z,92.9
2016-10-13T04:05:47.625Z,93.2
2016-10-13T04:06:08.368Z,93.1
2016-10-13T04:06:30.075Z,92.8
2016-10-13T04:06:50.648Z,92.8
2016-10-13T04:07:11.228Z,92.9
2016-10-13T04:07:32.681Z,92.8
2016-10-13T04:07:53.255Z,93.1
2016-10-13T04:08:13.814Z,93
2016-10-13T04:08:35.074Z,93.1
2016-10-13T04:08:55.642Z,93
2016-10-13T04:09:17.057Z,92.8
2016-10-13T04:09:37.633Z,92.8
2016-10-13T04:09:59.061Z,92.9
2016-10-13T04:10:19.632Z,92.8
2016-10-13T04:10:41.068Z,92.9
2016-10-13T04:11:01.652Z,92.8
2016-10-13T04:11:22.232Z,93
2016-10-13T04:11:42.793Z,93.1
2016-10-13T04:12:03.366Z,93.1
2016-10-13T04:12:23.938Z,93.2
2016-10-13T04:12:44.667Z,93.2
2016-10-13T04:13:05.278Z,93.1
2016-10-13T04:13:25.852Z,93.3
2016-10-13T04:13:46.619Z,93.2
2016-10-13T04:14:07.196Z,92.8
2016-10-13T04:14:27.773Z,93
2016-10-13T04:14:48.721Z,92.9
2016-10-13T04:15:10.056Z,93
2016-10-13T04:15:32.061Z,92.9
2016-10-13T04:15:52.626Z,93.1
2016-10-13T04:16:13.228Z,93.2
2016-10-13T04:16:33.795Z,92.9
2016-10-13T04:16:55.019Z,92.9
2016-10-13T04:17:15.682Z,93.1
2016-10-13T04:17:37.621Z,93
2016-10-13T04:17:58.194Z,93.2
2016-10-13T04:18:18.789Z,93.1
2016-10-13T04:18:39.356Z,93.2
2016-10-13T04:19:00.605Z,93.1
2016-10-13T04:19:25.108Z,93.2
2016-10-13T04:19:46.606Z,92.9
2016-10-13T04:20:07.202Z,93
2016-10-13T04:20:27.776Z,92.9
2016-10-13T04:20:48.347Z,92.9
2016-10-13T04:21:08.921Z,93
2016-10-13T04:21:29.623Z,93
2016-10-13T04:21:50.220Z,92.8
2016-10-13T04:22:12.573Z,92.8
2016-10-13T04:22:35.024Z,92.8
2016-10-13T04:22:55.634Z,93
2016-10-13T04:23:16.402Z,93.1
2016-10-13T04:23:36.980Z,93.1
2016-10-13T04:23:57.614Z,93.1
2016-10-13T04:24:18.330Z,93
2016-10-13T04:24:39.562Z,92.9
2016-10-13T04:25:00.131Z,93
2016-10-13T04:25:20.711Z,92.9
2016-10-13T04:25:41.282Z,93.1
2016-10-13T04:26:01.843Z,93
2016-10-13T04:26:22.413Z,92.8
2016-10-13T04:26:43.001Z,92.8
2016-10-13T04:27:03.572Z,92.7
2016-10-13T04:27:24.135Z,92.9
2016-10-13T04:27:44.714Z,93.1
2016-10-13T04:28:05.286Z,92.8
2016-10-13T04:28:26.583Z,92.9
2016-10-13T04:28:47.172Z,93.2
2016-10-13T04:29:08.581Z,92.8
2016-10-13T04:29:29.154Z,93.2
2016-10-13T04:29:49.730Z,92.9
2016-10-13T04:30:10.330Z,93.3
2016-10-13T04:30:31.522Z,92.8
2016-10-13T04:30:52.088Z,92.9
2016-10-13T04:31:12.658Z,93.1
2016-10-13T04:31:33.236Z,93.1
2016-10-13T04:31:53.821Z,92.9
2016-10-13T04:32:14.408Z,92.9
2016-10-13T04:32:34.976Z,93.1
2016-10-13T04:32:55.549Z,92.9
2016-10-13T04:33:16.118Z,92.8
2016-10-13T04:33:36.688Z,92.8
2016-10-13T04:33:58.122Z,92.8
2016-10-13T04:34:19.582Z,92.9
2016-10-13T04:34:40.165Z,93.2
2016-10-13T04:35:00.745Z,92.8
2016-10-13T04:35:21.339Z,93.1
2016-10-13T04:35:41.925Z,93.2
2016-10-13T04:36:02.509Z,93.4
2016-10-13T04:36:23.104Z,93
2016-10-13T04:36:43.690Z,92.8
2016-10-13T04:37:06.089Z,92.8
2016-10-13T04:37:26.670Z,93
2016-10-13T04:37:47.240Z,92.9
2016-10-13T04:38:07.823Z,92.8
2016-10-13T04:38:30.030Z,92.9
2016-10-13T04:38:50.601Z,93.2
2016-10-13T04:39:12.074Z,93.4
2016-10-13T04:39:34.148Z,93.2
2016-10-13T04:39:54.734Z,92.9
2016-10-13T04:40:16.099Z,92.9
2016-10-13T04:40:37.576Z,92.8
2016-10-13T04:40:58.134Z,92.8
2016-10-13T04:41:19.528Z,93.2
2016-10-13T04:41:40.093Z,93.3
2016-10-13T04:42:01.604Z,93.1
2016-10-13T04:42:23.119Z,93.1
2016-10-13T04:42:44.585Z,93
2016-10-13T04:43:05.155Z,92.9
2016-10-13T04:43:26.530Z,92.8
2016-10-13T04:43:48.074Z,93.1
2016-10-13T04:44:09.594Z,92.9
2016-10-13T04:44:31.092Z,93.2
2016-10-13T04:44:51.669Z,93.4